This is the latest recevied weather packets stored in our database for station/object K3SV. If no packets are shown the sender has not sent any weather packets the latest 1 day(s).
| Time | Temp. | Humidity | Pressure | Rain* | Wind** | Luminosity | Snow |
|---|---|---|---|---|---|---|---|
| 1778027966 | 25° C | 68% | 1015 hPa | 0 mm | 0 m/s | 0 W/m² | - |
| 1778027663 | 25° C | 67% | 1014.9 hPa | 0 mm | 0 m/s | 0 W/m² | - |
| 1778027359 | 25.56° C | 66% | 1014.8 hPa | 0 mm | 0 m/s | 0 W/m² | - |
| 1778027055 | 25.56° C | 66% | 1014.8 hPa | 0 mm | 0 m/s | 0 W/m² | - |
| 1778026750 | 25.56° C | 65% | 1014.5 hPa | 0 mm | 0 m/s | 0 W/m² | - |
| 1778026448 | 26.11° C | 65% | 1014.4 hPa | 0 mm | 0.45 m/s, 25° | 1 W/m² | - |
| 1778026145 | 26.11° C | 64% | 1014.6 hPa | 0 mm | 0 m/s | 2 W/m² | - |
| 1778025843 | 26.11° C | 64% | 1014.7 hPa | 0 mm | 0 m/s | 3 W/m² | - |
| 1778025539 | 26.67° C | 62% | 1014.4 hPa | 0 mm | 0 m/s | 7 W/m² | - |
| 1778025237 | 26.67° C | 62% | 1014.6 hPa | 0 mm | 0 m/s | 10 W/m² | - |
| 1778024934 | 27.22° C | 61% | 1014.5 hPa | 0 mm | 0 m/s | 16 W/m² | - |
| 1778024632 | 27.22° C | 60% | 1014.2 hPa | 0 mm | 0.45 m/s, 10° | 21 W/m² | - |
| 1778024328 | 27.78° C | 59% | 1014.2 hPa | 0 mm | 0.45 m/s, 10° | 27 W/m² | - |
| 1778024026 | 28.33° C | 57% | 1014 hPa | 0 mm | 1.34 m/s, 219° | 33 W/m² | - |
| 1778023723 | 28.89° C | 53% | 1013.8 hPa | 0 mm | 0.89 m/s, 199° | 40 W/m² | - |
| 1778023421 | 28.89° C | 46% | 1013.9 hPa | 0 mm | 0 m/s | 46 W/m² | - |
| 1778023117 | 28.89° C | 46% | 1014 hPa | 0 mm | 0.45 m/s, 40° | 52 W/m² | - |
| 1778022815 | 28.89° C | 47% | 1013.8 hPa | 0 mm | 0 m/s | 51 W/m² | - |
| 1778022513 | 28.89° C | 47% | 1013.8 hPa | 0 mm | 0 m/s | 52 W/m² | - |
| 1778022210 | 28.89° C | 46% | 1013.9 hPa | 0 mm | 0 m/s | 55 W/m² | - |
| 1778021901 | 29.44° C | 46% | 1013.9 hPa | 0 mm | 0 m/s | 64 W/m² | - |
| 1778021599 | 29.44° C | 46% | 1013.9 hPa | 0 mm | 0 m/s | 65 W/m² | - |
| 1778021293 | 29.44° C | 45% | 1014.2 hPa | 0 mm | 0 m/s | 54 W/m² | - |
| 1778020992 | 30° C | 44% | 1014.3 hPa | 0 mm | 0 m/s | 55 W/m² | - |
| 1778020689 | 30° C | 44% | 1014.1 hPa | 0 mm | 0 m/s | 66 W/m² | - |
* Rain latest hour (hover to see other rain measurements)
** Current wind speed in m/s (hover to see current wind gust speed)